Time;durP1;ratioP1;P1;durP2;ratioP2;P2;SDS_P1;SDS_P2;PMS_P1;PMS_P2;Temp;Humidity;BMP_temperature;BMP_pressure;BME280_temperature;BME280_humidity;BME280_pressure;Samples;Min_cycle;Max_cycle;Signal;HPM_P1;HPM_P2
2023/09/09 00:02:15;;;;;;;20.52;14.02;;;20.90;99.90;;;;;;5054123;28;20040;-68
2023/09/09 00:04:42;;;;;;;;;;;21.00;99.90;;;;;;5032657;28;20044;-68
2023/09/09 00:07:11;;;;;;;20.85;13.85;;;20.90;99.90;;;;;;5035954;28;19999;-68
2023/09/09 00:09:38;;;;;;;19.73;14.35;;;20.90;99.90;;;;;;5052422;28;20109;-68
2023/09/09 00:12:04;;;;;;;20.75;14.23;;;21.00;99.90;;;;;;5063003;28;20044;-68
2023/09/09 00:14:30;;;;;;;21.60;14.70;;;20.90;99.90;;;;;;5015818;28;20036;-68
2023/09/09 00:16:56;;;;;;;;;;;20.90;99.90;;;;;;5048360;28;20100;-69
2023/09/09 00:19:24;;;;;;;23.70;13.93;;;20.90;99.90;;;;;;5070522;28;20512;-68
2023/09/09 00:21:49;;;;;;;20.67;14.43;;;20.90;99.90;;;;;;5041983;28;20082;-70
2023/09/09 00:24:15;;;;;;;;;;;20.90;99.90;;;;;;5072746;28;20485;-68
2023/09/09 00:26:44;;;;;;;20.67;13.90;;;20.80;99.90;;;;;;5069539;28;19931;-69
2023/09/09 00:29:09;;;;;;;18.35;13.32;;;20.80;99.90;;;;;;5068614;28;20425;-72
2023/09/09 00:31:37;;;;;;;;;;;20.80;99.90;;;;;;5057585;28;20493;-71
2023/09/09 00:34:02;;;;;;;18.67;13.90;;;20.70;99.90;;;;;;5023182;28;19940;-70
2023/09/09 00:36:28;;;;;;;;;;;20.70;99.90;;;;;;5049346;28;20614;-69
2023/09/09 00:38:54;;;;;;;19.63;13.80;;;20.70;99.90;;;;;;5047578;28;19971;-69
2023/09/09 00:41:20;;;;;;;22.08;14.73;;;20.70;99.90;;;;;;5023763;28;20213;-70
2023/09/09 00:43:46;;;;;;;18.88;13.85;;;20.70;99.90;;;;;;5048902;28;20075;-69
2023/09/09 00:46:13;;;;;;;;;;;20.60;99.90;;;;;;5049433;28;20479;-69
2023/09/09 00:48:39;;;;;;;18.50;13.15;;;20.60;99.90;;;;;;5048755;28;19956;-69
2023/09/09 00:51:05;;;;;;;;;;;20.50;99.90;;;;;;5061577;28;20075;-69
2023/09/09 00:53:32;;;;;;;16.95;12.77;;;20.50;99.90;;;;;;5054645;28;19954;-69
2023/09/09 00:56:00;;;;;;;19.05;13.50;;;20.50;99.90;;;;;;5034656;28;20048;-70
2023/09/09 00:58:29;;;;;;;20.15;12.52;;;20.50;99.90;;;;;;5044079;28;20036;-69
2023/09/09 01:00:55;;;;;;;19.10;13.95;;;20.50;99.90;;;;;;5064925;28;20055;-70
2023/09/09 01:03:21;;;;;;;;;;;20.50;99.90;;;;;;5053976;28;20398;-69
2023/09/09 01:05:47;;;;;;;18.00;12.55;;;20.50;99.90;;;;;;5066962;28;19916;-69
2023/09/09 01:08:25;;;;;;;17.13;12.77;;;20.40;99.90;;;;;;5041982;28;20037;-69
2023/09/09 01:10:53;;;;;;;19.23;12.93;;;20.40;99.90;;;;;;5043718;28;20056;-70
2023/09/09 01:13:19;;;;;;;18.13;12.50;;;20.40;99.90;;;;;;5028993;28;25847;-70
2023/09/09 01:15:46;;;;;;;;;;;20.40;99.90;;;;;;5065438;28;20431;-69
2023/09/09 01:18:12;;;;;;;15.27;11.35;;;20.30;99.90;;;;;;5064919;28;19920;-69
2023/09/09 01:20:49;;;;;;;15.10;12.02;;;20.30;99.90;;;;;;5042386;28;20637;-69
2023/09/09 01:23:14;;;;;;;17.88;12.27;;;20.30;99.90;;;;;;5032971;28;20032;-69
2023/09/09 01:25:42;;;;;;;;;;;20.30;99.90;;;;;;5068552;28;20044;-69
2023/09/09 01:28:08;;;;;;;17.40;11.63;;;20.20;99.90;;;;;;5042207;28;19920;-69
2023/09/09 01:30:36;;;;;;;;;;;20.20;99.90;;;;;;5040142;28;20474;-69
2023/09/09 01:33:05;;;;;;;14.90;11.07;;;20.20;99.90;;;;;;5029058;28;19923;-69
2023/09/09 01:35:30;;;;;;;18.60;12.80;;;20.10;99.90;;;;;;5050032;28;20032;-69
2023/09/09 01:37:59;;;;;;;18.70;12.75;;;20.10;99.90;;;;;;5034646;28;20045;-69
2023/09/09 01:40:25;;;;;;;;;;;20.10;99.90;;;;;;5048813;28;20524;-69
2023/09/09 01:42:50;;;;;;;19.45;12.60;;;20.10;99.90;;;;;;5065887;28;19917;-69
2023/09/09 01:45:19;;;;;;;16.65;12.10;;;20.10;99.90;;;;;;5073020;28;20298;-68
2023/09/09 01:47:45;;;;;;;18.98;12.52;;;20.10;99.90;;;;;;5042750;28;20053;-67
2023/09/09 01:50:10;;;;;;;;;;;20.10;99.90;;;;;;5054959;28;20102;-67
2023/09/09 01:52:36;;;;;;;16.55;11.95;;;20.10;99.90;;;;;;5048400;28;19920;-68
2023/09/09 01:55:01;;;;;;;;;;;20.00;99.90;;;;;;5050588;28;20067;-68
2023/09/09 01:57:29;;;;;;;16.17;11.65;;;20.00;99.90;;;;;;5052465;28;19916;-67
2023/09/09 01:59:56;;;;;;;16.70;12.85;;;20.00;99.90;;;;;;5031494;28;20110;-68
2023/09/09 02:02:22;;;;;;;17.45;13.00;;;20.00;99.90;;;;;;5046066;28;20044;-69
2023/09/09 02:04:50;;;;;;;;;;;20.00;99.90;;;;;;5064609;28;20053;-69
2023/09/09 02:07:16;;;;;;;16.10;12.02;;;20.00;99.90;;;;;;5053588;28;19973;-70
2023/09/09 02:09:41;;;;;;;19.02;12.88;;;19.90;99.90;;;;;;5071173;28;20036;-70
2023/09/09 02:12:07;;;;;;;15.73;12.05;;;19.90;99.90;;;;;;5064464;28;20637;-69
2023/09/09 02:14:33;;;;;;;;;;;19.90;99.90;;;;;;5063803;28;20048;-70
2023/09/09 02:16:59;;;;;;;16.77;12.38;;;19.90;99.90;;;;;;5042329;28;20003;-69
2023/09/09 02:19:25;;;;;;;17.48;12.45;;;19.90;99.90;;;;;;5037521;28;20039;-70
2023/09/09 02:21:55;;;;;;;19.45;12.95;;;19.90;99.90;;;;;;5039224;28;20048;-69
2023/09/09 02:24:21;;;;;;;18.83;12.98;;;19.90;99.90;;;;;;5050854;28;20051;-70
2023/09/09 02:26:46;;;;;;;18.58;12.60;;;19.80;99.90;;;;;;5050253;28;20045;-70
2023/09/09 02:29:12;;;;;;;15.93;12.38;;;19.80;99.90;;;;;;5072465;28;20040;-69
2023/09/09 02:31:40;;;;;;;17.35;12.98;;;19.80;99.90;;;;;;5051112;28;20049;-70
2023/09/09 02:34:06;;;;;;;18.42;12.70;;;19.80;99.90;;;;;;5046285;28;20082;-69
2023/09/09 02:36:32;;;;;;;17.23;12.23;;;19.80;99.90;;;;;;5063853;28;20565;-69
2023/09/09 02:39:00;;;;;;;19.58;12.93;;;19.80;99.90;;;;;;5076769;28;20076;-69
2023/09/09 02:41:27;;;;;;;19.02;12.68;;;19.70;99.90;;;;;;5063359;28;20536;-69
2023/09/09 02:43:53;;;;;;;16.17;12.40;;;19.70;99.90;;;;;;5028044;28;20044;-70
2023/09/09 02:46:21;;;;;;;15.52;12.82;;;19.70;99.90;;;;;;5048322;28;20051;-73
2023/09/09 02:48:47;;;;;;;16.90;12.73;;;19.70;99.90;;;;;;5045745;28;20051;-71
2023/09/09 02:51:13;;;;;;;20.35;14.15;;;19.60;99.90;;;;;;5063301;28;20051;-70
2023/09/09 02:53:42;;;;;;;19.92;13.77;;;19.60;99.90;;;;;;5033397;28;20036;-70
2023/09/09 02:56:11;;;;;;;19.52;13.35;;;19.60;99.90;;;;;;5058593;28;20520;-70
2023/09/09 02:58:37;;;;;;;18.55;13.30;;;19.60;99.90;;;;;;5025052;28;20056;-70
2023/09/09 03:01:12;;;;;;;19.15;12.52;;;19.60;99.90;;;;;;5053518;28;20049;-70
2023/09/09 03:03:37;;;;;;;19.23;13.65;;;19.60;99.90;;;;;;5038829;28;20067;-70
2023/09/09 03:06:03;;;;;;;19.45;13.05;;;19.50;99.90;;;;;;5044542;28;20222;-70
2023/09/09 03:08:32;;;;;;;17.55;13.18;;;19.50;99.90;;;;;;5034256;28;20044;-69
2023/09/09 03:10:57;;;;;;;18.75;13.15;;;19.50;99.90;;;;;;5041094;28;20075;-70
2023/09/09 03:13:23;;;;;;;17.17;12.77;;;19.50;99.90;;;;;;5059045;28;20080;-70
2023/09/09 03:15:48;;;;;;;20.00;13.50;;;19.50;99.90;;;;;;5085163;22;20044;-70
2023/09/09 03:18:17;;;;;;;20.33;14.25;;;19.40;99.90;;;;;;5056998;28;20072;-71
2023/09/09 03:20:42;;;;;;;21.38;13.60;;;19.40;99.90;;;;;;5042141;28;20071;-71
2023/09/09 03:23:08;;;;;;;19.20;14.38;;;19.40;99.90;;;;;;5054757;28;20045;-70
2023/09/09 03:25:40;;;;;;;18.65;13.00;;;19.40;99.90;;;;;;5027180;28;20037;-71
2023/09/09 03:28:08;;;;;;;21.83;14.07;;;19.40;99.90;;;;;;5050597;28;20041;-71
2023/09/09 03:30:57;;;;;;;17.52;13.13;;;19.40;99.90;;;;;;5036271;28;20050;-71
2023/09/09 03:33:27;;;;;;;18.90;12.98;;;19.40;99.90;;;;;;5049681;28;20037;-71
2023/09/09 03:35:56;;;;;;;18.48;13.30;;;19.30;99.90;;;;;;5035950;28;20043;-70
2023/09/09 03:38:21;;;;;;;19.13;13.57;;;19.40;99.90;;;;;;5063395;28;20028;-71
2023/09/09 03:40:47;;;;;;;22.23;14.43;;;19.30;99.90;;;;;;5027539;28;20040;-70
2023/09/09 03:43:15;;;;;;;18.63;13.90;;;19.30;99.90;;;;;;5022208;28;20044;-70
2023/09/09 03:45:41;;;;;;;19.80;13.68;;;19.30;99.90;;;;;;5036867;28;20044;-70
2023/09/09 03:48:06;;;;;;;20.52;13.70;;;19.20;99.90;;;;;;5053151;28;20275;-70
2023/09/09 03:50:33;;;;;;;20.45;13.38;;;19.20;99.90;;;;;;5058119;28;20135;-70
2023/09/09 03:52:59;;;;;;;19.10;13.68;;;19.30;99.90;;;;;;5044377;28;20067;-70
2023/09/09 03:55:25;;;;;;;;;;;19.20;99.90;;;;;;5042376;28;20045;-70
2023/09/09 03:57:51;;;;;;;16.92;13.15;;;19.20;99.90;;;;;;5038625;28;20301;-70
2023/09/09 04:00:17;;;;;;;18.83;13.63;;;19.20;99.90;;;;;;5041487;28;20056;-70
2023/09/09 04:02:43;;;;;;;;;;;19.20;99.90;;;;;;5028257;28;20044;-70
2023/09/09 04:05:09;;;;;;;19.83;13.45;;;19.20;99.90;;;;;;5043274;28;19916;-70
2023/09/09 04:07:40;;;;;;;;;;;19.20;99.90;;;;;;5037400;28;20639;-70
2023/09/09 04:10:09;;;;;;;19.80;13.68;;;19.10;99.90;;;;;;5061755;28;19940;-70
2023/09/09 04:12:34;;;;;;;22.08;14.25;;;19.10;99.90;;;;;;5040420;28;20041;-70
2023/09/09 04:15:00;;;;;;;19.13;13.68;;;19.10;99.90;;;;;;5038905;28;20048;-70
2023/09/09 04:17:25;;;;;;;24.02;14.25;;;19.10;99.90;;;;;;5045268;28;20528;-70
2023/09/09 04:19:54;;;;;;;20.40;14.43;;;19.20;99.90;;;;;;5055329;28;20253;-70
2023/09/09 04:22:20;;;;;;;19.50;13.95;;;19.20;99.90;;;;;;5040391;28;20137;-70
2023/09/09 04:24:45;;;;;;;22.98;14.75;;;19.20;99.90;;;;;;5020249;28;20534;-70
2023/09/09 04:27:11;;;;;;;19.00;13.10;;;19.10;99.90;;;;;;5061814;28;20032;-70
2023/09/09 04:29:36;;;;;;;21.40;13.88;;;19.20;99.90;;;;;;5053462;28;20048;-70
2023/09/09 04:32:05;;;;;;;20.05;14.38;;;19.20;99.90;;;;;;5031572;28;20140;-70
2023/09/09 04:34:31;;;;;;;20.15;14.25;;;19.20;99.90;;;;;;5039072;28;20086;-70
2023/09/09 04:36:57;;;;;;;18.92;14.65;;;19.20;99.90;;;;;;5060372;28;20048;-70
2023/09/09 04:39:22;;;;;;;20.70;13.13;;;19.20;99.90;;;;;;5043372;28;20242;-70
2023/09/09 04:41:48;;;;;;;18.13;13.05;;;19.10;99.90;;;;;;5040632;28;20048;-70
2023/09/09 04:44:14;;;;;;;20.35;13.68;;;19.10;99.90;;;;;;5042190;28;20040;-70
2023/09/09 04:46:40;;;;;;;19.45;14.00;;;19.00;99.90;;;;;;5027136;28;20056;-70
2023/09/09 04:49:08;;;;;;;19.48;13.27;;;19.00;99.90;;;;;;5047189;28;20056;-70
2023/09/09 04:51:34;;;;;;;18.33;13.00;;;19.00;99.90;;;;;;5024013;28;20089;-70
2023/09/09 04:54:01;;;;;;;20.23;13.52;;;19.00;99.90;;;;;;5063865;28;20478;-70
2023/09/09 04:56:27;;;;;;;20.25;13.55;;;19.00;99.90;;;;;;5038350;28;20157;-71
2023/09/09 04:58:53;;;;;;;21.90;13.07;;;18.90;99.90;;;;;;5044742;28;20098;-70
2023/09/09 05:01:18;;;;;;;19.38;13.73;;;18.90;99.90;;;;;;5040000;28;20041;-70
2023/09/09 05:03:44;;;;;;;17.88;13.48;;;18.90;99.90;;;;;;5036079;28;20596;-70
2023/09/09 05:06:12;;;;;;;19.77;13.45;;;19.00;99.90;;;;;;5044101;28;20036;-70
2023/09/09 05:08:40;;;;;;;23.88;14.88;;;19.00;99.90;;;;;;5042388;28;20071;-70
2023/09/09 05:11:05;;;;;;;19.58;13.50;;;19.00;99.90;;;;;;5037492;28;20063;-70
2023/09/09 05:13:31;;;;;;;20.33;14.10;;;19.00;99.90;;;;;;5039556;28;20409;-70
2023/09/09 05:15:57;;;;;;;22.17;14.90;;;19.00;99.90;;;;;;5057845;28;20041;-70
2023/09/09 05:18:22;;;;;;;22.80;14.55;;;19.00;99.90;;;;;;5014557;28;20051;-70
2023/09/09 05:20:48;;;;;;;22.02;14.32;;;18.90;99.90;;;;;;5040698;28;20060;-70
2023/09/09 05:23:14;;;;;;;19.58;14.45;;;19.00;99.90;;;;;;5044978;28;20033;-70
2023/09/09 05:25:39;;;;;;;19.35;14.35;;;19.00;99.90;;;;;;5043071;28;20040;-70
2023/09/09 05:28:05;;;;;;;19.15;13.50;;;19.00;99.90;;;;;;5049804;28;20040;-71
2023/09/09 05:30:31;;;;;;;22.05;15.30;;;18.90;99.90;;;;;;5060433;28;20045;-70
2023/09/09 05:32:57;;;;;;;19.45;13.93;;;18.90;99.90;;;;;;5032358;28;20050;-70
2023/09/09 05:35:25;;;;;;;19.33;14.18;;;18.90;99.90;;;;;;5060204;28;20429;-71
2023/09/09 05:37:53;;;;;;;18.25;13.63;;;18.90;99.90;;;;;;5035760;28;20047;-71
2023/09/09 05:40:19;;;;;;;19.38;14.32;;;18.90;99.90;;;;;;5031152;28;20207;-71
2023/09/09 05:42:48;;;;;;;20.48;15.02;;;18.90;99.90;;;;;;5035877;28;20032;-70
2023/09/09 05:45:16;;;;;;;21.83;15.52;;;18.80;99.90;;;;;;5026817;28;20545;-71
2023/09/09 05:47:45;;;;;;;21.20;14.43;;;18.80;99.90;;;;;;5032717;28;20137;-71
2023/09/09 05:50:11;;;;;;;25.95;15.07;;;18.90;99.90;;;;;;5039556;28;20041;-70
2023/09/09 05:52:37;;;;;;;18.80;14.02;;;18.80;99.90;;;;;;5019905;28;20053;-70
2023/09/09 05:55:03;;;;;;;20.70;14.73;;;18.90;99.90;;;;;;5034593;28;20094;-71
2023/09/09 05:57:29;;;;;;;;;;;18.90;99.90;;;;;;5039097;28;20553;-70
2023/09/09 05:59:55;;;;;;;21.83;15.25;;;18.90;99.90;;;;;;5021569;28;20036;-71
2023/09/09 06:02:20;;;;;;;21.98;14.75;;;19.00;99.90;;;;;;5039331;28;20409;-70
2023/09/09 06:04:46;;;;;;;24.73;15.70;;;19.00;99.90;;;;;;5028077;28;20102;-70
2023/09/09 06:07:12;;;;;;;22.58;15.88;;;19.00;99.90;;;;;;5014071;28;20059;-70
2023/09/09 06:09:39;;;;;;;22.30;15.88;;;19.10;99.90;;;;;;5052181;28;20459;-70
2023/09/09 06:12:08;;;;;;;23.00;16.70;;;19.10;99.90;;;;;;5030411;28;20057;-70
2023/09/09 06:14:33;;;;;;;23.25;16.38;;;19.10;99.90;;;;;;5023423;28;20051;-71
2023/09/09 06:16:59;;;;;;;23.85;15.50;;;19.20;99.90;;;;;;5054273;28;20044;-71
2023/09/09 06:19:28;;;;;;;24.92;16.10;;;19.20;99.90;;;;;;5036432;28;20481;-70
2023/09/09 06:21:53;;;;;;;25.13;17.13;;;19.20;99.90;;;;;;5029476;28;20099;-70
2023/09/09 06:24:19;;;;;;;24.27;16.80;;;19.20;99.90;;;;;;5016481;28;20475;-70
2023/09/09 06:26:45;;;;;;;21.90;16.30;;;19.30;99.90;;;;;;5031365;28;20037;-70
2023/09/09 06:29:13;;;;;;;24.67;17.92;;;19.40;99.90;;;;;;5044855;28;20090;-71
2023/09/09 06:31:42;;;;;;;24.90;17.08;;;19.40;99.90;;;;;;5034754;28;20516;-70
2023/09/09 06:34:10;;;;;;;23.10;16.55;;;19.40;99.90;;;;;;5031397;28;20477;-70
2023/09/09 06:36:36;;;;;;;28.65;17.60;;;19.50;99.90;;;;;;5038066;28;20055;-70
2023/09/09 06:39:04;;;;;;;25.17;18.83;;;19.50;99.90;;;;;;5035701;28;20049;-70
2023/09/09 06:41:33;;;;;;;26.17;17.63;;;19.50;99.90;;;;;;5032065;28;20056;-70
2023/09/09 06:43:58;;;;;;;25.83;18.27;;;19.60;99.90;;;;;;5029295;28;20047;-70
2023/09/09 06:46:24;;;;;;;28.58;18.60;;;19.60;99.90;;;;;;5031024;28;20041;-70
2023/09/09 06:48:50;;;;;;;25.50;18.35;;;19.60;99.90;;;;;;5029133;28;20676;-70
2023/09/09 06:51:16;;;;;;;23.80;18.02;;;19.70;99.90;;;;;;5055170;28;20363;-70
2023/09/09 06:53:47;;;;;;;24.95;17.58;;;19.70;99.90;;;;;;5033124;28;20442;-71
2023/09/09 06:56:12;;;;;;;25.98;18.65;;;19.80;99.90;;;;;;5036206;28;20041;-70
2023/09/09 06:58:38;;;;;;;26.02;19.35;;;19.80;99.90;;;;;;5043545;28;20044;-70
2023/09/09 07:01:06;;;;;;;26.90;18.88;;;19.90;99.90;;;;;;5045275;28;20149;-70
2023/09/09 07:03:31;;;;;;;25.73;18.73;;;19.90;99.90;;;;;;5034868;28;20037;-70
2023/09/09 07:06:00;;;;;;;28.17;19.48;;;20.00;99.90;;;;;;5040938;28;20044;-70
2023/09/09 07:08:27;;;;;;;28.85;19.35;;;20.10;99.90;;;;;;5042639;28;20051;-70
2023/09/09 07:10:53;;;;;;;27.67;19.27;;;20.20;99.90;;;;;;5053719;28;20405;-70
2023/09/09 07:13:19;;;;;;;;;;;20.20;99.90;;;;;;5040355;28;20037;-70
2023/09/09 07:15:45;;;;;;;23.92;17.70;;;20.20;99.90;;;;;;5023630;28;19939;-71
2023/09/09 07:18:14;;;;;;;34.55;20.67;;;20.30;99.90;;;;;;5046863;28;20037;-70
2023/09/09 07:20:41;;;;;;;33.00;22.10;;;20.40;99.90;;;;;;5045087;28;20497;-70
2023/09/09 07:23:07;;;;;;;33.00;22.58;;;20.40;99.90;;;;;;5044472;28;20397;-71
2023/09/09 07:25:33;;;;;;;;;;;20.50;99.90;;;;;;5042636;28;20051;-70
2023/09/09 07:28:05;;;;;;;39.65;26.45;;;20.60;99.90;;;;;;5039362;28;19917;-71
2023/09/09 07:30:32;;;;;;;38.88;26.60;;;20.70;99.90;;;;;;5064330;28;20059;-70
2023/09/09 07:32:58;;;;;;;41.10;26.13;;;20.80;99.90;;;;;;5040040;28;20124;-71
2023/09/09 07:35:23;;;;;;;;;;;20.80;99.90;;;;;;5047248;28;20577;-71
2023/09/09 07:37:52;;;;;;;43.72;26.77;;;20.90;99.90;;;;;;5051864;28;20378;-71
2023/09/09 07:40:17;;;;;;;53.95;30.15;;;21.00;99.90;;;;;;5057709;28;20048;-70
2023/09/09 07:42:43;;;;;;;;;;;21.10;99.90;;;;;;5043529;28;20029;-71
2023/09/09 07:45:12;;;;;;;47.42;29.15;;;21.20;99.90;;;;;;5045531;28;19966;-71
2023/09/09 07:47:37;;;;;;;45.63;29.15;;;21.30;99.90;;;;;;5036816;28;20045;-70
2023/09/09 07:50:03;;;;;;;;;;;21.40;99.90;;;;;;5039865;28;20063;-71
2023/09/09 07:52:29;;;;;;;45.30;27.95;;;21.50;99.90;;;;;;5041235;28;19943;-71
2023/09/09 07:54:54;;;;;;;37.47;25.98;;;21.60;99.90;;;;;;5063084;28;20098;-70
2023/09/09 07:57:23;;;;;;;38.20;25.08;;;21.60;99.90;;;;;;5042036;28;20447;-70
2023/09/09 07:59:51;;;;;;;39.08;25.15;;;21.70;99.90;;;;;;5038771;28;20131;-71
2023/09/09 08:02:17;;;;;;;;;;;21.80;99.90;;;;;;5041599;28;20135;-71
2023/09/09 08:04:47;;;;;;;38.70;25.23;;;21.90;99.90;;;;;;5063480;28;20389;-70
2023/09/09 08:07:18;;;;;;;38.22;23.50;;;22.00;99.90;;;;;;5019648;28;20037;-71
2023/09/09 08:09:44;;;;;;;33.90;22.55;;;22.00;99.90;;;;;;5037281;28;20068;-71
2023/09/09 08:12:10;;;;;;;36.65;24.25;;;22.10;99.90;;;;;;5036054;28;20036;-70
2023/09/09 08:14:38;;;;;;;32.38;21.25;;;22.20;99.90;;;;;;5039689;28;20041;-70
2023/09/09 08:17:04;;;;;;;27.55;20.17;;;22.20;99.90;;;;;;5017664;28;20045;-71
2023/09/09 08:19:30;;;;;;;;;;;22.30;99.90;;;;;;5035710;28;20037;-71
2023/09/09 08:21:58;;;;;;;32.33;20.88;;;22.30;99.90;;;;;;5036591;28;19921;-70
2023/09/09 08:24:24;;;;;;;29.23;20.17;;;22.40;99.90;;;;;;5035622;28;20079;-71
2023/09/09 08:26:49;;;;;;;;;;;22.50;99.90;;;;;;5035290;28;20041;-71
2023/09/09 08:29:15;;;;;;;28.38;19.42;;;22.50;99.90;;;;;;5036790;28;20389;-71
2023/09/09 08:31:41;;;;;;;;;;;22.60;99.90;;;;;;5042599;28;20123;-71
2023/09/09 08:34:07;;;;;;;27.40;19.52;;;22.60;99.90;;;;;;5058340;28;20290;-71
2023/09/09 08:36:32;;;;;;;;;;;22.70;99.90;;;;;;5046174;28;20314;-71
2023/09/09 08:38:59;;;;;;;26.27;19.10;;;22.80;99.90;;;;;;5041023;28;19920;-71
2023/09/09 08:41:42;;;;;;;26.77;17.83;;;22.80;99.90;;;;;;5053967;28;20075;-71
2023/09/09 08:44:13;;;;;;;21.20;15.02;;;22.90;99.90;;;;;;5016558;28;20036;-71
2023/09/09 08:46:39;;;;;;;22.25;15.70;;;23.00;99.90;;;;;;5040443;28;20494;-70
2023/09/09 08:49:06;;;;;;;;;;;23.10;99.90;;;;;;5031337;28;20032;-71
2023/09/09 08:51:40;;;;;;;27.40;19.45;;;23.10;99.90;;;;;;5041318;28;19928;-71
2023/09/09 08:54:09;;;;;;;32.20;21.52;;;23.20;99.90;;;;;;5041125;28;20048;-71
2023/09/09 08:56:38;;;;;;;32.60;20.20;;;23.20;99.90;;;;;;5056885;28;20045;-71
2023/09/09 08:59:04;;;;;;;32.50;21.50;;;23.30;99.90;;;;;;5049938;28;20048;-71
2023/09/09 09:01:39;;;;;;;30.17;20.83;;;23.30;99.90;;;;;;5026552;28;20048;-71
2023/09/09 09:04:05;;;;;;;28.92;20.40;;;23.40;99.90;;;;;;5039736;28;20301;-71
2023/09/09 09:06:33;;;;;;;35.28;23.58;;;23.50;99.90;;;;;;5043331;28;20044;-71
2023/09/09 09:08:59;;;;;;;32.70;21.63;;;23.50;99.90;;;;;;5048170;28;20498;-71
2023/09/09 09:11:25;;;;;;;26.85;17.58;;;23.60;99.90;;;;;;5039202;28;20052;-71
2023/09/09 09:13:51;;;;;;;27.50;17.40;;;23.70;99.90;;;;;;5035618;28;20048;-71
2023/09/09 09:16:18;;;;;;;24.45;17.00;;;23.70;99.90;;;;;;5032221;28;20514;-71
2023/09/09 09:18:44;;;;;;;23.33;16.08;;;23.80;99.90;;;;;;5040360;28;20045;-71
2023/09/09 09:21:10;;;;;;;23.17;14.90;;;23.90;99.90;;;;;;5041215;28;20422;-72
2023/09/09 09:23:43;;;;;;;22.92;13.80;;;23.90;99.90;;;;;;5034965;28;20037;-71
2023/09/09 09:26:30;;;;;;;21.15;13.95;;;24.00;99.90;;;;;;5060367;28;20386;-71
2023/09/09 09:28:59;;;;;;;18.40;12.43;;;24.10;99.90;;;;;;5058878;28;20044;-71
2023/09/09 09:31:27;;;;;;;17.48;10.98;;;24.20;99.90;;;;;;5039015;28;20278;-71
2023/09/09 09:33:57;;;;;;;15.93;11.23;;;24.30;99.90;;;;;;5053121;28;20037;-71
2023/09/09 09:36:23;;;;;;;18.95;12.98;;;24.40;99.90;;;;;;5059034;28;20032;-72
2023/09/09 09:38:50;;;;;;;16.40;11.38;;;24.40;99.90;;;;;;5042573;28;20272;-71
2023/09/09 09:41:19;;;;;;;15.13;10.48;;;24.50;99.90;;;;;;5059440;28;20049;-71
2023/09/09 09:43:49;;;;;;;17.98;12.73;;;24.60;99.90;;;;;;5054127;28;20040;-71
2023/09/09 09:46:22;;;;;;;18.73;12.52;;;24.70;99.90;;;;;;5032563;28;20044;-71
2023/09/09 09:48:48;;;;;;;15.98;11.85;;;24.80;99.90;;;;;;5037148;28;20147;-71
2023/09/09 09:51:17;;;;;;;15.80;10.23;;;24.90;99.90;;;;;;5055289;28;20048;-71
2023/09/09 09:53:48;;;;;;;16.75;10.93;;;25.00;99.90;;;;;;5060893;28;20036;-71
2023/09/09 09:56:19;;;;;;;15.40;10.27;;;25.10;99.90;;;;;;5040021;28;20438;-71
2023/09/09 09:58:50;;;;;;;14.80;9.20;;;25.10;99.90;;;;;;5040949;28;20056;-71
2023/09/09 10:01:19;;;;;;;10.18;8.05;;;25.20;99.90;;;;;;5053550;28;20037;-71
2023/09/09 10:03:55;;;;;;;13.05;9.82;;;25.30;99.90;;;;;;5052081;28;20441;-71
2023/09/09 10:06:28;;;;;;;17.88;11.07;;;25.40;99.90;;;;;;5055160;28;20040;-71
2023/09/09 10:09:23;;;;;;;17.25;11.73;;;25.40;99.90;;;;;;5041824;28;20064;-71
2023/09/09 10:12:01;;;;;;;13.20;9.32;;;25.50;99.90;;;;;;5021149;28;20053;-71
2023/09/09 10:14:28;;;;;;;17.63;11.93;;;25.60;99.90;;;;;;5037603;28;20040;-71
2023/09/09 10:16:54;;;;;;;15.50;10.90;;;25.70;99.90;;;;;;5056561;28;20041;-70
2023/09/09 10:19:21;;;;;;;14.40;9.23;;;25.80;99.90;;;;;;5053053;28;20111;-71
2023/09/09 10:21:50;;;;;;;13.45;8.75;;;25.80;99.90;;;;;;5035252;28;20574;-71
2023/09/09 10:24:16;;;;;;;13.55;9.18;;;25.90;99.90;;;;;;5030927;28;20393;-70
2023/09/09 10:26:49;;;;;;;14.80;9.40;;;26.00;99.90;;;;;;5057017;28;20045;-71
2023/09/09 10:29:20;;;;;;;13.75;9.35;;;26.10;99.90;;;;;;5036455;28;20040;-71
2023/09/09 10:31:46;;;;;;;15.57;9.48;;;26.10;99.90;;;;;;5033451;28;20072;-70
2023/09/09 10:34:13;;;;;;;15.00;9.77;;;26.20;99.90;;;;;;5035582;28;20598;-71
2023/09/09 10:36:41;;;;;;;16.92;10.52;;;26.30;99.90;;;;;;5053563;28;20044;-70
2023/09/09 10:39:08;;;;;;;14.63;10.10;;;26.30;99.90;;;;;;5016319;28;20041;-70
2023/09/09 10:41:34;;;;;;;17.77;10.93;;;26.40;99.90;;;;;;5035809;28;20093;-71
2023/09/09 10:44:00;;;;;;;17.35;11.68;;;26.40;99.90;;;;;;5037599;28;20078;-70
2023/09/09 10:46:37;;;;;;;17.27;12.00;;;26.50;99.90;;;;;;5036070;28;20437;-70
2023/09/09 10:49:08;;;;;;;15.77;10.20;;;26.50;99.90;;;;;;5053206;28;20540;-71
2023/09/09 10:51:49;;;;;;;13.85;9.20;;;26.60;99.90;;;;;;5057033;28;20033;-70
2023/09/09 10:54:17;;;;;;;14.68;10.27;;;26.60;99.90;;;;;;5055702;28;20085;-71
2023/09/09 10:56:54;;;;;;;16.05;11.15;;;26.70;99.90;;;;;;5053839;28;20052;-71
2023/09/09 10:59:26;;;;;;;17.98;11.18;;;26.80;99.90;;;;;;5033024;28;20044;-71
2023/09/09 11:02:18;;;;;;;18.42;11.27;;;26.90;99.90;;;;;;5022752;28;20040;-71
2023/09/09 11:04:56;;;;;;;15.07;10.48;;;26.90;99.90;;;;;;5041038;28;20041;-71
2023/09/09 11:07:22;;;;;;;15.32;10.43;;;27.00;99.90;;;;;;5042390;28;20036;-70
2023/09/09 11:09:52;;;;;;;12.70;7.93;;;27.10;99.90;;;;;;5050756;28;20047;-71
2023/09/09 11:12:17;;;;;;;13.55;8.13;;;27.20;99.90;;;;;;5031408;28;20052;-71
2023/09/09 11:14:56;;;;;;;12.52;8.77;;;27.30;99.90;;;;;;5038305;28;20037;-70
2023/09/09 11:17:22;;;;;;;11.93;8.43;;;27.40;99.90;;;;;;5034720;28;20052;-71
2023/09/09 11:19:52;;;;;;;10.82;8.13;;;27.40;99.90;;;;;;5051811;28;20037;-70
2023/09/09 11:22:18;;;;;;;12.07;8.68;;;27.40;99.90;;;;;;5034514;28;20044;-71
2023/09/09 11:24:46;;;;;;;11.38;7.90;;;27.50;99.90;;;;;;5033559;28;20080;-71
2023/09/09 11:27:14;;;;;;;8.90;6.10;;;27.50;99.90;;;;;;5031849;28;20363;-71
2023/09/09 11:29:48;;;;;;;9.98;6.88;;;27.60;99.90;;;;;;5050705;28;20120;-71
2023/09/09 11:32:28;;;;;;;9.07;6.47;;;27.70;99.90;;;;;;5048894;28;20041;-71
2023/09/09 11:34:55;;;;;;;8.77;6.13;;;27.70;99.90;;;;;;5058282;28;20040;-71
2023/09/09 11:37:24;;;;;;;8.63;6.70;;;27.80;99.90;;;;;;5038156;28;20171;-71
2023/09/09 11:39:54;;;;;;;9.75;6.70;;;27.80;99.90;;;;;;5031198;28;20049;-71
2023/09/09 11:42:23;;;;;;;9.50;6.78;;;27.80;99.90;;;;;;5058527;28;20025;-71
2023/09/09 11:44:49;;;;;;;10.00;7.35;;;27.80;99.90;;;;;;5056365;28;20452;-71
2023/09/09 11:47:16;;;;;;;12.77;7.40;;;27.80;99.90;;;;;;5031302;28;20461;-71
2023/09/09 11:49:44;;;;;;;9.45;6.50;;;27.80;99.90;;;;;;5033471;28;20048;-71
2023/09/09 11:52:11;;;;;;;11.05;7.47;;;27.80;99.90;;;;;;5047356;28;20425;-70
2023/09/09 11:54:37;;;;;;;10.13;7.25;;;27.80;99.90;;;;;;5035921;28;20505;-71
2023/09/09 11:57:04;;;;;;;12.50;6.55;;;27.80;99.90;;;;;;5016809;28;20041;-71
2023/09/09 11:59:29;;;;;;;9.40;5.90;;;27.80;99.90;;;;;;5055801;28;20603;-71
2023/09/09 12:01:55;;;;;;;11.43;7.18;;;27.90;99.90;;;;;;5041560;28;22558;-71
2023/09/09 12:04:21;;;;;;;9.63;6.57;;;28.10;99.90;;;;;;5044411;28;20040;-70
2023/09/09 12:06:51;;;;;;;10.32;7.03;;;28.10;99.90;;;;;;5032152;28;20094;-71
2023/09/09 12:09:17;;;;;;;13.77;8.55;;;28.20;99.90;;;;;;5053066;28;20147;-71
2023/09/09 12:11:47;;;;;;;10.75;7.32;;;28.30;99.90;;;;;;5029366;28;20131;-71
2023/09/09 12:14:14;;;;;;;11.93;6.93;;;28.30;99.90;;;;;;5038129;28;20134;-70
2023/09/09 12:16:42;;;;;;;10.27;7.18;;;28.30;99.90;;;;;;5048740;28;20068;-71
2023/09/09 12:19:12;;;;;;;9.68;7.15;;;28.30;99.90;;;;;;5049591;28;20040;-70
2023/09/09 12:21:45;;;;;;;10.25;7.38;;;28.30;99.90;;;;;;5049960;28;20110;-71
2023/09/09 12:24:11;;;;;;;10.30;7.50;;;28.30;99.90;;;;;;5026930;28;20391;-70
2023/09/09 12:26:37;;;;;;;11.68;8.40;;;28.30;99.90;;;;;;5031713;28;20041;-70
2023/09/09 12:29:07;;;;;;;10.63;6.78;;;28.30;99.90;;;;;;5052559;28;20304;-71
2023/09/09 12:31:48;;;;;;;11.00;7.45;;;28.30;99.90;;;;;;5035468;28;20044;-71
2023/09/09 12:34:20;;;;;;;10.68;7.80;;;28.40;99.90;;;;;;5026894;28;20052;-71
2023/09/09 12:36:48;;;;;;;10.10;7.25;;;28.40;99.90;;;;;;5050986;28;20178;-71
2023/09/09 12:39:26;;;;;;;8.88;5.80;;;28.40;99.90;;;;;;5045546;28;20157;-71
2023/09/09 12:42:04;;;;;;;8.25;5.70;;;28.50;99.90;;;;;;5034577;28;20109;-71